createdAt,value
2023-05-16T00:01:41.697Z,7.63
2023-05-16T00:04:10.013Z,5.60
2023-05-16T00:06:37.876Z,8.90
2023-05-16T00:09:06.143Z,12.25
2023-05-16T00:11:34.012Z,9.27
2023-05-16T00:14:02.621Z,8.32
2023-05-16T00:16:30.672Z,9.18
2023-05-16T00:19:01.094Z,8.50
2023-05-16T00:21:29.386Z,6.00
2023-05-16T00:23:57.404Z,8.30
2023-05-16T00:26:25.177Z,10.38
2023-05-16T00:28:53.206Z,8.63
2023-05-16T00:31:20.975Z,9.18
2023-05-16T00:33:49.030Z,6.78
2023-05-16T00:36:16.745Z,6.70
2023-05-16T00:38:48.412Z,6.35
2023-05-16T00:41:17.241Z,13.07
2023-05-16T00:43:45.535Z,8.60
2023-05-16T00:46:13.568Z,8.35
2023-05-16T00:48:42.037Z,8.60
2023-05-16T00:51:10.190Z,6.35
2023-05-16T00:53:38.246Z,7.80
2023-05-16T00:56:06.983Z,8.48
2023-05-16T00:58:35.528Z,7.43
2023-05-16T01:01:06.236Z,10.15
2023-05-16T01:03:35.376Z,10.43
2023-05-16T01:06:03.323Z,6.63
2023-05-16T01:08:31.318Z,9.07
2023-05-16T01:11:15.012Z,8.77
2023-05-16T01:13:52.025Z,6.20
2023-05-16T01:16:25.195Z,8.48
2023-05-16T01:19:34.501Z,9.88
2023-05-16T01:22:02.738Z,8.32
2023-05-16T01:24:43.927Z,9.30
2023-05-16T01:27:13.482Z,8.30
2023-05-16T01:29:41.480Z,8.23
2023-05-16T01:32:09.568Z,9.73
2023-05-16T01:34:37.723Z,9.75
2023-05-16T01:37:05.680Z,8.85
2023-05-16T01:39:47.402Z,10.65
2023-05-16T01:42:16.778Z,9.98
2023-05-16T01:45:00.177Z,8.02
2023-05-16T01:47:30.619Z,8.35
2023-05-16T01:50:15.722Z,10.55
2023-05-16T01:52:50.290Z,9.77
2023-05-16T01:55:37.079Z,8.75
2023-05-16T01:58:06.972Z,8.27
2023-05-16T02:00:35.407Z,8.50
2023-05-16T02:03:03.241Z,9.68
2023-05-16T02:05:31.735Z,8.95
2023-05-16T02:08:00.137Z,10.00
2023-05-16T02:10:28.515Z,9.95
2023-05-16T02:12:56.435Z,9.45
2023-05-16T02:15:27.052Z,7.63
2023-05-16T02:17:55.876Z,10.23
2023-05-16T02:20:24.129Z,7.63
2023-05-16T02:22:51.927Z,8.07
2023-05-16T02:25:20.113Z,7.97
2023-05-16T02:27:47.850Z,10.52
2023-05-16T02:30:18.058Z,9.52
2023-05-16T02:32:46.108Z,7.47
2023-05-16T02:35:14.152Z,8.10
2023-05-16T02:37:42.674Z,8.80
2023-05-16T02:40:11.122Z,10.70
2023-05-16T02:42:38.836Z,7.57
2023-05-16T02:45:07.195Z,9.63
2023-05-16T02:47:35.005Z,11.48
2023-05-16T02:50:03.777Z,8.55
2023-05-16T02:52:31.633Z,10.30
2023-05-16T02:55:15.954Z,9.55
2023-05-16T02:57:47.601Z,6.18
2023-05-16T03:00:18.774Z,8.23
2023-05-16T03:02:47.100Z,10.23
2023-05-16T03:05:15.175Z,8.55
2023-05-16T03:07:43.012Z,8.63
2023-05-16T03:10:11.326Z,8.30
2023-05-16T03:12:39.575Z,8.15
2023-05-16T03:15:09.343Z,10.02
2023-05-16T03:17:37.652Z,8.52
2023-05-16T03:20:09.428Z,7.63
2023-05-16T03:22:37.283Z,7.50
2023-05-16T03:25:05.840Z,6.88
2023-05-16T03:27:33.715Z,9.98
2023-05-16T03:30:04.210Z,7.30
2023-05-16T03:32:34.564Z,7.50
2023-05-16T03:35:03.583Z,6.82
2023-05-16T03:37:31.977Z,10.20
2023-05-16T03:40:00.464Z,9.65
2023-05-16T03:42:28.309Z,10.45
2023-05-16T03:44:56.371Z,8.27
2023-05-16T03:47:24.271Z,6.45
2023-05-16T03:49:53.305Z,9.93
2023-05-16T03:52:21.137Z,9.15
2023-05-16T03:54:49.274Z,8.98
2023-05-16T03:57:17.070Z,7.13
2023-05-16T03:59:44.990Z,8.77
2023-05-16T04:02:12.863Z,8.43
2023-05-16T04:04:40.927Z,8.35
2023-05-16T04:07:08.775Z,8.88
2023-05-16T04:09:36.842Z,8.30
2023-05-16T04:12:04.778Z,9.35
2023-05-16T04:14:34.084Z,9.13
2023-05-16T04:17:02.116Z,8.68
2023-05-16T04:19:30.264Z,9.07
2023-05-16T04:21:58.052Z,7.40
2023-05-16T04:24:28.839Z,9.73
2023-05-16T04:26:56.709Z,8.60
2023-05-16T04:29:24.870Z,9.48
2023-05-16T04:31:52.700Z,10.98
2023-05-16T04:34:20.735Z,7.93
2023-05-16T04:36:48.398Z,7.80
2023-05-16T04:39:18.929Z,10.38
2023-05-16T04:41:46.927Z,10.48
2023-05-16T04:44:14.879Z,10.48
2023-05-16T04:46:42.977Z,9.82
2023-05-16T04:49:11.488Z,7.47
2023-05-16T04:51:39.208Z,9.63
2023-05-16T04:54:08.855Z,9.60
2023-05-16T04:56:36.791Z,7.35
2023-05-16T04:59:05.174Z,11.35
2023-05-16T05:01:32.934Z,8.02
2023-05-16T05:04:00.987Z,8.95
2023-05-16T05:06:28.692Z,9.57
2023-05-16T05:08:56.683Z,11.52
2023-05-16T05:11:24.358Z,10.43
2023-05-16T05:13:53.052Z,7.90
2023-05-16T05:16:21.024Z,9.68
2023-05-16T05:18:49.209Z,9.40
2023-05-16T05:21:16.980Z,7.18
2023-05-16T05:23:44.958Z,11.60
2023-05-16T05:26:12.719Z,11.38
2023-05-16T05:28:42.169Z,8.45
2023-05-16T05:31:13.525Z,11.02
2023-05-16T05:33:42.527Z,8.93
2023-05-16T05:36:10.432Z,8.95
2023-05-16T05:38:38.625Z,9.90
2023-05-16T05:41:07.215Z,9.05
2023-05-16T05:43:35.562Z,8.52
2023-05-16T05:46:06.784Z,6.93
2023-05-16T05:51:02.456Z,9.88
2023-05-16T05:53:30.573Z,8.48
2023-05-16T05:55:58.436Z,10.10
2023-05-16T05:58:26.743Z,9.18
2023-05-16T06:00:54.553Z,9.15
2023-05-16T06:03:22.700Z,9.05
2023-05-16T06:05:50.873Z,7.68
2023-05-16T06:08:19.081Z,9.32
2023-05-16T06:10:47.481Z,5.22
2023-05-16T06:13:15.712Z,10.20
2023-05-16T06:15:43.452Z,6.25
2023-05-16T06:18:11.822Z,9.55
2023-05-16T06:20:39.670Z,7.50
2023-05-16T06:23:07.649Z,9.40
2023-05-16T06:25:35.477Z,7.82
2023-05-16T06:28:03.796Z,9.60
2023-05-16T06:30:31.761Z,8.88
2023-05-16T06:33:00.340Z,9.68
2023-05-16T06:35:28.291Z,7.53
2023-05-16T06:37:59.138Z,7.73
2023-05-16T06:40:27.004Z,8.45
2023-05-16T06:42:55.462Z,6.80
2023-05-16T06:45:23.532Z,9.43
2023-05-16T06:47:51.822Z,8.55
2023-05-16T06:50:19.928Z,6.10
2023-05-16T06:52:48.349Z,6.85
2023-05-16T06:55:16.925Z,7.43
2023-05-16T06:57:45.116Z,12.60
2023-05-16T07:00:13.549Z,11.77
2023-05-16T07:02:41.819Z,6.60
2023-05-16T07:05:09.833Z,7.47
2023-05-16T07:07:38.071Z,7.85
2023-05-16T07:10:06.295Z,9.95
2023-05-16T07:12:41.720Z,8.25
2023-05-16T07:15:11.201Z,5.28
2023-05-16T07:17:39.345Z,7.53
2023-05-16T07:20:10.216Z,6.60
2023-05-16T07:25:06.486Z,7.13
2023-05-16T07:27:34.538Z,7.32
2023-05-16T07:30:02.470Z,9.50
2023-05-16T07:32:31.166Z,9.20
2023-05-16T07:34:59.902Z,6.53
2023-05-16T07:37:31.192Z,7.50
2023-05-16T07:39:59.092Z,7.32
2023-05-16T07:42:27.628Z,8.85
2023-05-16T07:44:55.517Z,9.18
2023-05-16T07:47:23.690Z,8.68
2023-05-16T07:49:51.598Z,7.97
2023-05-16T07:52:19.826Z,7.25
2023-05-16T07:54:48.002Z,6.03
2023-05-16T07:57:16.624Z,8.30
2023-05-16T07:59:45.115Z,7.97
2023-05-16T08:02:13.548Z,5.82
2023-05-16T08:04:41.524Z,5.32
2023-05-16T08:07:10.187Z,6.53
2023-05-16T08:09:40.775Z,8.18
2023-05-16T08:12:09.594Z,6.97
2023-05-16T08:14:37.406Z,5.57
2023-05-16T08:17:05.651Z,6.43
2023-05-16T08:19:36.085Z,5.38
2023-05-16T08:22:14.298Z,7.47
2023-05-16T08:27:13.706Z,9.25
2023-05-16T08:29:41.652Z,7.30
2023-05-16T08:32:11.144Z,9.25
2023-05-16T08:34:41.338Z,6.95
2023-05-16T08:37:11.813Z,7.85
2023-05-16T08:39:40.270Z,8.52
2023-05-16T08:42:08.649Z,11.68
2023-05-16T08:44:36.536Z,4.85
2023-05-16T08:47:16.669Z,7.57
2023-05-16T08:49:47.706Z,6.35
2023-05-16T08:52:21.147Z,5.55
2023-05-16T08:55:05.734Z,6.28
2023-05-16T08:57:39.000Z,8.65
2023-05-16T09:00:13.613Z,4.70
2023-05-16T09:02:43.260Z,8.30
2023-05-16T09:05:13.457Z,7.18
2023-05-16T09:07:45.941Z,3.00
2023-05-16T09:10:16.468Z,7.93
2023-05-16T09:12:47.149Z,5.78
2023-05-16T09:15:15.102Z,5.63
2023-05-16T09:17:48.174Z,6.28
2023-05-16T09:20:18.924Z,6.97
2023-05-16T09:27:56.732Z,5.88
2023-05-16T09:30:29.886Z,6.07
2023-05-16T09:32:59.193Z,7.55
2023-05-16T09:37:59.012Z,6.20
2023-05-16T09:40:26.824Z,5.53
2023-05-16T09:43:06.159Z,4.88
2023-05-16T09:45:35.244Z,4.72
2023-05-16T09:48:08.011Z,8.48
2023-05-16T09:50:38.126Z,5.97
2023-05-16T09:53:06.472Z,5.63
2023-05-16T09:55:34.574Z,7.18
2023-05-16T09:58:02.775Z,4.93
2023-05-16T10:00:32.407Z,5.40
2023-05-16T10:03:05.627Z,6.72
2023-05-16T10:05:37.385Z,6.97
2023-05-16T10:08:06.202Z,6.70
2023-05-16T10:10:38.383Z,4.93
2023-05-16T10:13:08.335Z,4.20
2023-05-16T10:15:38.204Z,6.07
2023-05-16T10:18:12.102Z,5.60
2023-05-16T10:20:45.861Z,5.13
2023-05-16T10:23:18.066Z,6.55
2023-05-16T10:25:48.174Z,4.13
2023-05-16T10:28:19.271Z,5.13
2023-05-16T10:30:47.433Z,3.97
2023-05-16T10:33:20.069Z,6.35
2023-05-16T10:35:48.332Z,4.68
2023-05-16T10:38:19.811Z,5.00
2023-05-16T10:40:49.568Z,5.75
2023-05-16T10:43:26.672Z,7.07
2023-05-16T10:45:58.701Z,4.93
2023-05-16T10:48:30.842Z,5.57
2023-05-16T10:51:03.278Z,4.50
2023-05-16T10:53:36.192Z,4.47
2023-05-16T10:56:04.073Z,8.52
2023-05-16T10:58:40.943Z,3.30
2023-05-16T11:01:32.392Z,4.78
2023-05-16T11:04:08.963Z,5.57
2023-05-16T11:06:42.108Z,4.22
2023-05-16T11:09:16.505Z,4.90
2023-05-16T11:11:53.066Z,4.75
2023-05-16T11:14:24.250Z,5.10
2023-05-16T11:16:53.296Z,5.28
2023-05-16T11:19:36.099Z,6.55
2023-05-16T11:22:23.696Z,3.72
2023-05-16T11:24:56.306Z,3.58
2023-05-16T11:27:26.990Z,6.25
2023-05-16T11:30:19.463Z,7.55
2023-05-16T11:32:48.467Z,5.20
2023-05-16T11:35:18.349Z,4.78
2023-05-16T11:37:47.681Z,6.60
2023-05-16T11:40:17.310Z,6.85
2023-05-16T11:42:47.931Z,5.70
2023-05-16T11:45:22.438Z,4.50
2023-05-16T11:47:50.648Z,5.90
2023-05-16T11:50:26.955Z,4.55
2023-05-16T11:52:57.709Z,4.07
2023-05-16T11:55:41.098Z,4.22
2023-05-16T11:58:12.291Z,4.43
2023-05-16T12:00:49.064Z,5.10
2023-05-16T12:03:18.860Z,5.57
2023-05-16T12:05:52.399Z,4.60
2023-05-16T12:08:24.802Z,5.50
2023-05-16T12:10:54.159Z,6.18
2023-05-16T12:13:25.746Z,5.95
2023-05-16T12:15:54.209Z,4.55
2023-05-16T12:18:23.189Z,8.25
2023-05-16T12:20:52.485Z,4.18
2023-05-16T12:23:22.764Z,4.20
2023-05-16T12:25:53.969Z,3.17
2023-05-16T12:28:22.008Z,4.35
2023-05-16T12:30:50.208Z,5.68
2023-05-16T12:33:18.232Z,4.63
2023-05-16T12:35:47.816Z,4.45
2023-05-16T12:38:17.574Z,8.07
2023-05-16T12:40:46.640Z,6.88
2023-05-16T12:43:20.830Z,2.85
2023-05-16T12:47:00.728Z,4.75
2023-05-16T12:49:29.262Z,6.18
2023-05-16T12:52:05.703Z,3.92
2023-05-16T12:54:33.904Z,5.20
2023-05-16T12:57:01.699Z,4.40
2023-05-16T12:59:31.438Z,4.18
2023-05-16T13:02:01.932Z,4.72
2023-05-16T13:04:31.013Z,6.53
2023-05-16T13:07:02.718Z,2.90
2023-05-16T13:09:33.068Z,3.72
2023-05-16T13:12:01.467Z,4.10
2023-05-16T13:14:29.809Z,6.40
2023-05-16T13:16:57.680Z,4.70
2023-05-16T13:19:26.271Z,4.72
2023-05-16T13:21:54.468Z,4.38
2023-05-16T13:24:22.778Z,4.57
2023-05-16T13:26:50.712Z,4.25
2023-05-16T13:29:21.249Z,3.85
2023-05-16T13:31:49.060Z,7.30
2023-05-16T13:34:17.335Z,6.60
2023-05-16T13:39:18.613Z,5.32
2023-05-16T13:41:49.089Z,4.22
2023-05-16T13:44:18.169Z,3.42
2023-05-16T13:46:46.239Z,6.95
2023-05-16T13:49:14.409Z,5.88
2023-05-16T13:51:42.264Z,5.68
2023-05-16T13:54:10.324Z,3.78
2023-05-16T13:56:38.239Z,5.63
2023-05-16T13:59:07.570Z,4.72
2023-05-16T14:01:36.822Z,3.53
2023-05-16T14:04:05.562Z,5.57
2023-05-16T14:06:33.640Z,6.15
2023-05-16T14:09:01.669Z,5.95
2023-05-16T14:11:29.793Z,5.32
2023-05-16T14:13:58.611Z,4.63
2023-05-16T14:16:26.663Z,4.70
2023-05-16T14:18:55.154Z,5.63
2023-05-16T14:21:23.077Z,5.00
2023-05-16T14:23:51.271Z,9.18
2023-05-16T14:26:22.721Z,6.03
2023-05-16T14:28:51.612Z,5.85
2023-05-16T14:31:19.517Z,5.57
2023-05-16T14:33:47.763Z,5.93
2023-05-16T14:36:16.208Z,5.78
2023-05-16T14:38:44.326Z,6.80
2023-05-16T14:41:12.182Z,6.43
2023-05-16T14:43:40.345Z,5.95
2023-05-16T14:46:08.364Z,6.45
2023-05-16T14:48:36.623Z,8.13
2023-05-16T14:51:05.267Z,5.05
2023-05-16T14:53:33.430Z,5.68
2023-05-16T14:56:02.934Z,5.72
2023-05-16T14:58:31.389Z,5.88
2023-05-16T15:00:59.303Z,7.68
2023-05-16T15:03:27.464Z,5.60
2023-05-16T15:05:55.791Z,7.47
2023-05-16T15:08:23.979Z,6.72
2023-05-16T15:10:51.880Z,7.68
2023-05-16T15:13:20.033Z,7.13
2023-05-16T15:15:47.852Z,7.22
2023-05-16T15:18:16.024Z,7.55
2023-05-16T15:20:44.042Z,6.40
2023-05-16T15:23:12.329Z,9.50
2023-05-16T15:25:40.487Z,7.07
2023-05-16T15:28:08.559Z,7.90
2023-05-16T15:30:36.443Z,7.38
2023-05-16T15:33:04.701Z,10.18
2023-05-16T15:35:35.166Z,9.80
2023-05-16T15:38:03.286Z,10.32
2023-05-16T15:40:31.231Z,7.43
2023-05-16T15:42:59.312Z,9.23
2023-05-16T15:45:27.354Z,8.73
2023-05-16T15:47:55.786Z,10.07
2023-05-16T15:50:23.840Z,8.35
2023-05-16T15:52:54.144Z,7.95
2023-05-16T15:55:22.117Z,10.38
2023-05-16T15:57:50.482Z,10.82
2023-05-16T16:00:18.688Z,8.57
2023-05-16T16:02:48.244Z,9.40
2023-05-16T16:05:16.321Z,7.93
2023-05-16T16:07:44.485Z,11.18
2023-05-16T16:10:14.827Z,8.98
2023-05-16T16:12:43.157Z,10.88
2023-05-16T16:15:13.557Z,12.45
2023-05-16T16:17:41.710Z,10.35
2023-05-16T16:20:12.537Z,10.55
2023-05-16T16:22:40.703Z,11.32
2023-05-16T16:25:08.912Z,8.60
2023-05-16T16:27:36.946Z,9.20
2023-05-16T16:30:06.004Z,9.98
2023-05-16T16:32:34.752Z,9.00
2023-05-16T16:35:05.384Z,12.07
2023-05-16T16:37:35.046Z,10.40
2023-05-16T16:40:03.966Z,11.77
2023-05-16T16:42:32.019Z,8.52
2023-05-16T16:45:00.100Z,10.23
2023-05-16T16:47:29.951Z,10.68
2023-05-16T16:49:58.409Z,10.10
2023-05-16T16:52:27.133Z,9.90
2023-05-16T16:54:55.346Z,11.73
2023-05-16T16:57:23.515Z,11.15
2023-05-16T16:59:51.636Z,9.40
2023-05-16T17:02:19.880Z,14.80
2023-05-16T17:04:47.821Z,12.48
2023-05-16T17:07:16.213Z,10.02
2023-05-16T17:09:46.397Z,10.68
2023-05-16T17:12:22.739Z,13.43
2023-05-16T17:14:51.341Z,14.00
2023-05-16T17:17:19.442Z,11.13
2023-05-16T17:19:47.718Z,11.85
2023-05-16T17:22:18.184Z,13.20
2023-05-16T17:24:46.229Z,9.05
2023-05-16T17:27:14.425Z,10.02
2023-05-16T17:29:42.600Z,10.35
2023-05-16T17:32:10.652Z,11.85
2023-05-16T17:34:38.382Z,11.05
2023-05-16T17:37:07.419Z,10.15
2023-05-16T17:39:35.496Z,8.93
2023-05-16T17:42:05.677Z,9.10
2023-05-16T17:44:33.578Z,11.55
2023-05-16T17:47:01.968Z,9.75
2023-05-16T17:49:29.997Z,9.82
2023-05-16T17:51:58.334Z,13.30
2023-05-16T17:54:30.563Z,10.80
2023-05-16T17:57:00.620Z,11.73
2023-05-16T17:59:28.559Z,8.95
2023-05-16T18:01:58.013Z,12.60
2023-05-16T18:04:26.185Z,11.23
2023-05-16T18:06:54.683Z,12.15
2023-05-16T18:09:22.450Z,9.68
2023-05-16T18:11:50.673Z,9.20
2023-05-16T18:14:18.417Z,11.02
2023-05-16T18:16:46.538Z,9.93
2023-05-16T18:19:14.560Z,14.35
2023-05-16T18:21:44.439Z,10.23
2023-05-16T18:24:13.257Z,8.70
2023-05-16T18:26:42.031Z,10.60
2023-05-16T18:29:10.875Z,10.60
2023-05-16T18:31:41.383Z,10.80
2023-05-16T18:34:10.405Z,9.80
2023-05-16T18:36:38.647Z,12.32
2023-05-16T18:39:07.185Z,11.18
2023-05-16T18:41:35.408Z,11.57
2023-05-16T18:44:03.306Z,12.30
2023-05-16T18:46:31.418Z,13.07
2023-05-16T18:48:59.530Z,12.85
2023-05-16T18:51:27.748Z,11.13
2023-05-16T18:53:55.521Z,13.70
2023-05-16T18:56:23.840Z,14.32
2023-05-16T18:58:51.758Z,12.30
2023-05-16T19:01:22.342Z,10.00
2023-05-16T19:03:50.434Z,9.43
2023-05-16T19:06:18.538Z,11.55
2023-05-16T19:08:47.994Z,11.05
2023-05-16T19:11:19.196Z,10.38
2023-05-16T19:13:47.230Z,9.90
2023-05-16T19:16:15.579Z,10.10
2023-05-16T19:18:46.046Z,9.73
2023-05-16T19:21:15.752Z,8.70
2023-05-16T19:23:46.356Z,8.15
2023-05-16T19:26:14.449Z,10.75
2023-05-16T19:28:42.847Z,11.57
2023-05-16T19:31:11.449Z,10.57
2023-05-16T19:33:39.432Z,11.32
2023-05-16T19:36:08.015Z,11.10
2023-05-16T19:38:35.754Z,9.55
2023-05-16T19:41:03.866Z,12.18
2023-05-16T19:43:34.951Z,12.00
2023-05-16T19:46:03.085Z,9.98
2023-05-16T19:48:31.153Z,12.02
2023-05-16T19:51:01.841Z,13.90
2023-05-16T19:53:29.689Z,13.15
2023-05-16T19:55:57.831Z,9.35
2023-05-16T19:58:26.765Z,12.65
2023-05-16T20:00:56.066Z,9.80
2023-05-16T20:03:24.433Z,10.10
2023-05-16T20:06:31.994Z,9.35
2023-05-16T20:09:00.248Z,9.00
2023-05-16T20:11:28.293Z,10.75
2023-05-16T20:14:01.995Z,12.20
2023-05-16T20:16:29.827Z,13.25
2023-05-16T20:18:58.278Z,10.23
2023-05-16T20:21:26.146Z,10.75
2023-05-16T20:23:54.225Z,10.68
2023-05-16T20:26:22.478Z,9.98
2023-05-16T20:28:50.666Z,10.00
2023-05-16T20:31:18.480Z,12.57
2023-05-16T20:33:47.104Z,9.32
2023-05-16T20:36:14.958Z,12.20
2023-05-16T20:38:42.951Z,10.95
2023-05-16T20:41:11.147Z,12.63
2023-05-16T20:43:39.162Z,12.18
2023-05-16T20:46:06.988Z,11.52
2023-05-16T20:48:35.150Z,9.98
2023-05-16T20:51:03.948Z,11.35
2023-05-16T20:53:32.045Z,10.38
2023-05-16T20:55:59.844Z,15.48
2023-05-16T20:58:27.995Z,8.45
2023-05-16T21:00:55.815Z,12.13
2023-05-16T21:03:23.962Z,9.25
2023-05-16T21:05:51.922Z,12.73
2023-05-16T21:08:19.983Z,12.45
2023-05-16T21:10:48.068Z,9.20
2023-05-16T21:13:16.121Z,11.15
2023-05-16T21:15:43.882Z,12.27
2023-05-16T21:18:12.029Z,12.05
2023-05-16T21:20:39.790Z,12.25
2023-05-16T21:23:07.836Z,10.98
2023-05-16T21:25:36.194Z,10.32
2023-05-16T21:28:04.608Z,10.63
2023-05-16T21:30:32.418Z,9.23
2023-05-16T21:33:00.623Z,11.43
2023-05-16T21:35:28.627Z,9.65
2023-05-16T21:37:57.003Z,12.38
2023-05-16T21:40:25.887Z,12.90
2023-05-16T21:42:54.465Z,11.40
2023-05-16T21:45:22.532Z,12.43
2023-05-16T21:47:50.668Z,14.07
2023-05-16T21:50:18.907Z,10.07
2023-05-16T21:52:54.964Z,11.13
2023-05-16T21:55:23.105Z,10.88
2023-05-16T21:57:51.319Z,12.02
2023-05-16T22:00:19.380Z,11.15
2023-05-16T22:02:48.793Z,12.85
2023-05-16T22:05:19.456Z,11.52
2023-05-16T22:07:47.613Z,13.20
2023-05-16T22:10:16.892Z,12.23
2023-05-16T22:12:44.983Z,12.40
2023-05-16T22:15:12.787Z,13.52
2023-05-16T22:17:41.848Z,11.15
2023-05-16T22:22:39.521Z,12.32
2023-05-16T22:25:08.429Z,12.25
2023-05-16T22:27:36.196Z,12.57
2023-05-16T22:30:04.655Z,10.38
2023-05-16T22:32:32.683Z,11.18
2023-05-16T22:35:00.876Z,10.48
2023-05-16T22:37:28.766Z,11.18
2023-05-16T22:39:57.235Z,14.55
2023-05-16T22:42:25.951Z,12.32
2023-05-16T22:44:54.020Z,13.90
2023-05-16T22:47:22.196Z,13.27
2023-05-16T22:49:52.577Z,12.25
2023-05-16T22:52:22.010Z,16.33
2023-05-16T22:54:50.250Z,16.08
2023-05-16T22:57:17.989Z,16.38
2023-05-16T22:59:46.057Z,21.15
2023-05-16T23:02:13.892Z,23.55
2023-05-16T23:04:42.052Z,22.85
2023-05-16T23:07:09.870Z,19.77
2023-05-16T23:09:37.936Z,22.38
2023-05-16T23:12:05.998Z,20.27
2023-05-16T23:14:34.107Z,20.60
2023-05-16T23:17:02.017Z,20.00
2023-05-16T23:19:30.240Z,22.05
2023-05-16T23:21:58.233Z,23.75
2023-05-16T23:24:26.398Z,22.17
2023-05-16T23:26:56.348Z,24.73
2023-05-16T23:29:24.423Z,24.73
2023-05-16T23:31:52.189Z,22.55
2023-05-16T23:34:20.206Z,19.83
2023-05-16T23:36:48.181Z,21.52
2023-05-16T23:39:17.431Z,23.67
2023-05-16T23:41:45.311Z,21.33
2023-05-16T23:44:13.360Z,22.02
2023-05-16T23:46:41.098Z,19.95
2023-05-16T23:49:09.314Z,22.92
2023-05-16T23:51:55.454Z,23.35
2023-05-16T23:54:28.435Z,20.42
2023-05-16T23:56:56.212Z,20.77
2023-05-16T23:59:24.232Z,16.70
